Whale Point, California Weather observations

Data are for observation ending at time listed.
 Day   Time    Ave.   Ave.  Ave.  Vector   Max.   Stn.    Total    Solar   Ave.  
  of    of     Air    Rel.  Wind   Wind    Wind   Baro.  Precip.   Rad.    Soil  
Year   Day     Temp.  Hum.  Speed  Dir.    Gust   Pres.                    Temp. 
2015   (PST)    F      %     mph   deg.    mph     mb.     in.     W/m2     F   
------------------------------------------------------------------------------
 186   21:40   59.2    90    2.1    24      7.0   995.3    0.00       0    81.0
 186   21:50   59.1    90    0.8   272      2.4   995.3    0.00       0    80.9
 186   22:00   59.2    90    0.9   322      2.5   995.3    0.00       0    80.8
 186   22:10   59.2    89    0.4   342      1.8   995.3    0.00       0    80.7
 186   22:20   59.3    89    0.1    74      0.9   995.3    0.00       0    80.7
 186   22:30   59.3    89    0.9   322      2.6   995.3    0.00       0    80.6
 186   22:40   59.0    89    2.5    14      4.2   995.3    0.00       0    80.5
 186   22:50   58.9    90    0.8   100      2.6   995.3    0.00       0    80.4
 186   23:00   59.0    90    1.9   219      4.7   995.6    0.00       0    80.3
 186   23:10   58.9    90    2.2   227      5.0   995.6    0.00       0    80.3
 186   23:20   58.8    90    1.2   229      3.2   995.6    0.00       0    80.2
 186   23:30   58.8    91    0.7   281      2.7   995.9    0.00       0    80.1
 186   23:40   58.8    91    1.4   260      4.7   995.9    0.00       0    80.0
 186   23:50   58.6    91    2.2   353      5.1   995.9    0.00       0    79.9
 187    0:00   58.3    91    1.6     2      3.3   995.9    0.00       0    79.8
 187    0:10   58.3    92    1.7   350      4.5   995.9    0.00       0    79.8
 187    0:20   58.2    92    0.5    17      3.3   995.9    0.00       0    79.7
 187    0:30   58.2    92    0.7    11      2.5   995.9    0.00       0    79.6
 187    0:40   58.2    92    0.4   336      1.2   995.9    0.00       0    79.5
 187    0:50   58.2    92    0.2   285      1.1   995.9    0.00       0    79.4
 187    1:00   58.2    91    0.4   332      1.8   995.9    0.00       0    79.3
 187    1:10   58.1    91    0.2   303      1.2   995.6    0.00       0    79.2
 187    1:20   58.2    92    0.3   291      1.2   995.6    0.00       0    79.1
 187    1:30   58.0    92    0.2   306      1.3   995.6    0.00       0    79.1
 187    1:40   57.9    92    0.3   330      2.0   995.6    0.00       0    79.0
 187    1:50   57.9    92    0.4   294      1.5   995.6    0.00       0    78.9
 187    2:00   57.9    92    0.1   225      0.7   995.9    0.00       0    78.8
 187    2:10   58.0    92    0.2   341      0.7   995.9    0.00       0    78.7
 187    2:20   57.7    92    2.3    54      4.3   995.6    0.00       0    78.6
 187    2:30   57.6    93    0.7    43      2.3   995.6    0.00       0    78.6
 187    2:40   57.6    93    1.1   200      3.7   995.9    0.00       0    78.5
 187    2:50   57.6    94    0.3    56      1.4   995.9    0.00       0    78.4
 187    3:00   57.4    94    0.9    70      2.8   995.9    0.00       0    78.3
 187    3:10   57.2    94    0.6     2      3.0   996.3    0.00       0    78.2
 187    3:20   57.2    94    0.6   352      1.7   996.3    0.00       0    78.2
 187    3:30   57.1    94    0.4    26      2.0   996.3    0.00       0    78.1
 187    3:40   57.1    94    1.1    13      2.4   996.3    0.01       0    78.0
 187    3:50   57.1    94    0.2    18      1.1   996.3    0.00       0    77.9
 187    4:00   57.2    94    0.1   345      1.0   996.3    0.00       0    77.8
 187    4:10   57.0    94    2.1    32      5.6   996.3    0.00       0    77.8
 187    4:20   56.9    94    0.1    10      1.0   996.3    0.01       0    77.7
 187    4:30   56.9    94    2.6   347      6.7   996.3    0.00       0    77.6
 187    4:40   56.7    95    2.3   356      7.3   996.3    0.00       0    77.5
 187    4:50   56.6    95    1.3   314      4.7   996.6    0.00       1    77.5
 187    5:00   56.7    95    0.2   267      1.3   996.6    0.00       2    77.4
 187    5:10   56.7    95    0.6   265      2.8   996.6    0.00       3    77.3
 187    5:20   56.6    95    0.7   354      2.0   997.0    0.00       5    77.2
 187    5:30   56.6    95    0.1    10      0.9   997.0    0.01       6    77.1
 187    5:40   56.6    95    1.3   306      3.3   997.0    0.00      15    77.1
 187    5:50   56.5    95    1.4   334      4.0   997.0    0.00      24    77.0
 187    6:00   56.5    95    1.1     5      3.0   997.0    0.00      29    76.9
 187    6:10   56.5    95    2.1    18      5.4   997.0    0.00      44    76.8
 187    6:20   56.6    95    1.5    41      4.5   997.0    0.00      52    76.8
 187    6:30   56.6    95    1.1   243      3.1   997.0    0.00      63    76.7
 187    6:40   56.5    95    2.1   308      4.2   997.0    0.00      86    76.6
 187    6:50   56.6    95    1.0   262      3.4   997.0    0.00      91    76.6
 187    7:00   56.8    95    1.5   276      3.7   997.3    0.00     119    76.5
 187    7:10   56.7    95    2.2   262      6.9   997.3    0.00     118    76.4
 187    7:20   56.5    95    2.6   247      6.7   997.3    0.00     136    76.3
 187    7:30   57.1    95    1.1   306      4.1   997.3    0.00     201    76.3
 187    7:40   57.1    95    1.9   312      4.5   997.3    0.00     222    76.2
 187    7:50   57.1    95    2.9   299      6.3   997.3    0.00     233    76.1
 187    8:00   56.9    95    4.5   324     11.2   997.3    0.00     218    76.1
 187    8:10   57.0    94    5.5    24     13.3   997.6    0.00     256    76.0
 187    8:20   57.5    92    5.0     3     11.4   997.6    0.00     288    76.0
 187    8:30   58.0    90    3.9   351     12.5   997.6    0.00     325    75.9
 187    8:40   58.4    89    3.2   281      6.9   998.0    0.00     288    75.8
 187    8:50   58.5    89    2.5   288      5.3   998.0    0.00     301    75.8
 187    9:00   58.8    89    2.5   291      5.8   997.6    0.00     297    75.8
 187    9:10   59.1    89    2.2   285      5.5   997.6    0.00     313    75.7
 187    9:20   59.6    88    2.5   283      6.1   997.6    0.00     316    75.7
 187    9:30   59.8    87    1.7   254      6.1   997.6    0.00     333    75.6
 187    9:40   59.7    87    2.0   229      6.3   997.6    0.00     342    75.6
 187    9:50   59.7    86    2.9   227      6.1   997.6    0.00     373    75.6
 187   10:00   59.3    87    3.8   239      8.4   997.6    0.00     413    75.6
 187   10:10   59.6    87    3.8   231      6.0   997.6    0.00     429    75.5
 187   10:20   59.9    86    3.4   232      6.6   997.6    0.00     447    75.5
 187   10:30   60.3    85    3.5   253      6.5   997.6    0.00     470    75.5
 187   10:40   60.7    86    3.4   246      6.4   997.6    0.00     499    75.5
 187   10:50   61.1    84    4.1   245      6.8   997.6    0.00     557    75.5
 187   11:00   61.5    84    3.3   259      7.2   997.6    0.00     523    75.5
 187   11:10   61.4    83    3.6   272      7.0   997.6    0.00     510    75.5
 187   11:20   61.5    83    3.3   288      7.2   997.6    0.00     422    75.5
 187   11:30   60.4    86    3.3   306      6.9   997.6    0.00     358    75.5
 187   11:40   60.0    87    3.6   307      6.6   997.6    0.00     349    75.5
 187   11:50   59.8    88    3.6   288      7.8   997.6    0.00     412    75.6
 187   12:00   60.4    87    3.4   283      6.4   997.3    0.00     497    75.6
 187   12:10   60.2    87    3.7   288     10.4   997.3    0.00     425    75.6
 187   12:20   59.7    89    4.4   286      9.1   997.3    0.00     463    75.6
 187   12:30   59.5    89    4.7   289     11.0   997.3    0.00     519    75.7
 187   12:40   60.5    87    3.0   294      7.7   997.3    0.00     560    75.7
 187   12:50   60.9    85    5.0   272     12.2   997.0    0.00     627    75.7
 187   13:00   61.6    83    4.0   277      7.7   997.0    0.00     549    75.7
 187   13:10   62.1    81    4.4   266      9.4   997.0    0.00     662    75.7
 187   13:20   62.1    80    5.3   261     10.9   996.6    0.00     647    75.8
 187   13:30   61.3    82    5.1   267      9.5   996.6    0.00     543    75.8
 187   13:40   61.1    82    4.3   275      8.8   996.6    0.00     477    75.9
 187   13:50   61.1    82    4.8   274     10.3   996.6    0.00     783    75.9
 187   14:00   61.9    80    5.6   253     10.4   996.6    0.00     772    76.0
 187   14:10   63.0    78    5.0   266      9.7   996.3    0.00     880    76.0
 187   14:20   64.1    75    4.6   231     10.2   996.3    0.00     698    76.0
 187   14:30   62.9    77    5.4   227      8.4   996.3    0.00     745    76.1
 187   14:40   63.0    77    5.9   231      9.1   995.9    0.00     864    76.2
 187   14:50   63.3    76    6.1   227      8.3   995.9    0.00     880    76.2
 187   15:00   63.3    76    5.8   218      9.7   995.6    0.00     787    76.3
 187   15:10   63.2    76    5.8   215     10.7   995.3    0.00     786    76.4
 187   15:20   63.4    76    5.5   204     12.7   994.9    0.00     748    76.5
 187   15:30   63.2    77    5.5   202     11.0   994.9    0.00     716    76.6
 187   15:40   63.6    76    3.7   215      8.8   994.9    0.00     684    76.7
 187   15:50   63.4    77    3.9   210      9.8   994.9    0.00     653    76.8
 187   16:00   63.5    77    3.4   209      8.6   994.9    0.00     627    76.9
 187   16:10   64.8    73    3.8   209      8.9   994.6    0.00     503    77.0
 187   16:20   64.8    73    4.5   195      9.5   994.6    0.00     356    77.1
 187   16:30   64.9    72    5.1   200     10.6   994.6    0.00     531    77.2
 187   16:40   64.4    73    4.9   199      9.6   994.2    0.00     503    77.3
 187   16:50   64.2    74    5.6   197     10.2   994.2    0.00     328    77.4
 187   17:00   63.9    74    4.6   193     10.3   994.2    0.00     349    77.6
 187   17:10   64.2    74    4.0   207      9.4   994.2    0.00      52    77.7
 187   17:20   65.0    72    2.9   226      9.5   994.2    0.00      46    77.8
 187   17:30   65.5    71    3.2   233      6.4   993.9    0.00      63    77.9
 187   17:40   64.5    74    3.4   211      7.2   994.2    0.00     272    78.0
 187   17:50   64.2    74    3.7   208      6.4   993.9    0.00     267    78.1
 187   18:00   63.9    75    3.2   213      7.2   994.2    0.00     232    78.2
 187   18:10   63.6    76    3.8   190      7.5   994.2    0.00     200    78.3
 187   18:20   63.8    75    2.1   205      5.6   994.2    0.00     168    78.3
 187   18:30   63.6    75    1.5   258      4.2   993.9    0.00     111    78.4
 187   18:40   63.7    75    1.4   255      3.4   993.9    0.00     102    78.5
 187   18:50   63.2    76    1.1   249      3.1   993.9    0.00      84    78.6
 187   19:00   63.3    76    0.4    11      2.2   993.9    0.00      59    78.7
 187   19:10   62.5    77    1.1   182      2.9   993.9    0.00      27    78.7
 187   19:20   62.1    79    0.4    43      1.2   993.9    0.00       8    78.8
 187   19:30   62.2    78    1.1   166      2.3   993.9    0.00       4    78.9
 187   19:40   61.3    81    0.7    53      1.5   993.9    0.00       2    79.0
 187   19:50   62.4    79    0.5   353      1.6   993.9    0.00       0    79.0
 187   20:00   62.4    78    0.8   131      2.3   993.9    0.00       0    79.0
 187   20:10   62.8    78    0.8    37      2.2   993.9    0.00       0    79.0
 187   20:20   63.5    76    1.2   120      3.4   993.9    0.00       0    79.0
 187   20:30   62.9    78    1.6   174      3.0   994.2    0.00       0    79.0
 187   20:40   61.5    80    1.3   179      3.4   994.2    0.00       0    79.0
 187   20:50   60.7    82    0.9    49      3.7   994.6    0.00       0    79.0
 187   21:00   61.3    82    3.1    54      6.1   994.6    0.00       0    78.9
 187   21:10   62.5    78    1.2   153      3.1   994.6    0.00       0    78.9
 187   21:20   62.3    79    0.6   132      1.9   994.6    0.00       0    78.9
 187   21:30   62.8    78    0.7   135      1.8   994.6    0.00       0    78.8

Return to Whale Point graphs page.


Western Regional Climate Center,wrcc@dri.edu